sensor_id;sensor_type;location;lat;lon;timestamp;P1;durP1;ratioP1;P2;durP2;ratioP2
3095;SDS011;1558;42.700;23.360;2022-09-25T00:01:21;18.57;;;16.67;;
3095;SDS011;1558;42.700;23.360;2022-09-25T00:03:49;20.07;;;17.50;;
3095;SDS011;1558;42.700;23.360;2022-09-25T00:06:20;20.73;;;16.80;;
3095;SDS011;1558;42.700;23.360;2022-09-25T00:08:49;19.37;;;17.40;;
3095;SDS011;1558;42.700;23.360;2022-09-25T00:11:18;19.10;;;17.13;;
3095;SDS011;1558;42.700;23.360;2022-09-25T00:13:49;19.17;;;17.33;;
3095;SDS011;1558;42.700;23.360;2022-09-25T00:16:18;20.37;;;16.50;;
3095;SDS011;1558;42.700;23.360;2022-09-25T00:18:49;18.43;;;16.67;;
3095;SDS011;1558;42.700;23.360;2022-09-25T00:21:35;20.57;;;18.47;;
3095;SDS011;1558;42.700;23.360;2022-09-25T00:24:04;18.67;;;16.87;;
3095;SDS011;1558;42.700;23.360;2022-09-25T00:26:34;20.23;;;16.80;;
3095;SDS011;1558;42.700;23.360;2022-09-25T00:29:04;18.43;;;16.53;;
3095;SDS011;1558;42.700;23.360;2022-09-25T00:31:33;19.47;;;17.47;;
3095;SDS011;1558;42.700;23.360;2022-09-25T00:34:03;19.13;;;17.20;;
3095;SDS011;1558;42.700;23.360;2022-09-25T00:36:32;19.30;;;17.27;;
3095;SDS011;1558;42.700;23.360;2022-09-25T00:39:01;18.17;;;16.27;;
3095;SDS011;1558;42.700;23.360;2022-09-25T00:41:29;17.83;;;15.97;;
3095;SDS011;1558;42.700;23.360;2022-09-25T00:43:58;18.40;;;16.40;;
3095;SDS011;1558;42.700;23.360;2022-09-25T00:46:28;18.47;;;16.30;;
3095;SDS011;1558;42.700;23.360;2022-09-25T00:49:00;18.50;;;16.60;;
3095;SDS011;1558;42.700;23.360;2022-09-25T00:51:37;17.50;;;15.57;;
3095;SDS011;1558;42.700;23.360;2022-09-25T00:54:09;18.10;;;16.30;;
3095;SDS011;1558;42.700;23.360;2022-09-25T00:56:41;17.47;;;15.77;;
3095;SDS011;1558;42.700;23.360;2022-09-25T00:59:13;18.37;;;16.07;;
3095;SDS011;1558;42.700;23.360;2022-09-25T01:01:45;17.93;;;16.13;;
3095;SDS011;1558;42.700;23.360;2022-09-25T01:04:15;17.90;;;16.00;;
3095;SDS011;1558;42.700;23.360;2022-09-25T01:06:43;17.57;;;15.77;;
3095;SDS011;1558;42.700;23.360;2022-09-25T01:09:11;16.60;;;14.90;;
3095;SDS011;1558;42.700;23.360;2022-09-25T01:11:39;18.63;;;16.63;;
3095;SDS011;1558;42.700;23.360;2022-09-25T01:14:07;16.90;;;15.27;;
3095;SDS011;1558;42.700;23.360;2022-09-25T01:16:37;17.63;;;15.83;;
3095;SDS011;1558;42.700;23.360;2022-09-25T01:19:18;19.77;;;15.43;;
3095;SDS011;1558;42.700;23.360;2022-09-25T01:21:53;17.70;;;15.83;;
3095;SDS011;1558;42.700;23.360;2022-09-25T01:24:35;17.47;;;15.40;;
3095;SDS011;1558;42.700;23.360;2022-09-25T01:27:28;17.57;;;14.33;;
3095;SDS011;1558;42.700;23.360;2022-09-25T01:30:05;16.83;;;15.13;;
3095;SDS011;1558;42.700;23.360;2022-09-25T01:32:37;15.67;;;14.00;;
3095;SDS011;1558;42.700;23.360;2022-09-25T01:35:12;15.80;;;14.20;;
3095;SDS011;1558;42.700;23.360;2022-09-25T01:37:45;16.23;;;14.60;;
3095;SDS011;1558;42.700;23.360;2022-09-25T01:40:20;14.13;;;12.73;;
3095;SDS011;1558;42.700;23.360;2022-09-25T01:42:53;14.87;;;13.57;;
3095;SDS011;1558;42.700;23.360;2022-09-25T01:45:28;15.53;;;13.93;;
3095;SDS011;1558;42.700;23.360;2022-09-25T01:48:03;14.67;;;13.07;;
3095;SDS011;1558;42.700;23.360;2022-09-25T01:50:38;13.70;;;12.33;;
3095;SDS011;1558;42.700;23.360;2022-09-25T01:53:11;15.83;;;14.20;;
3095;SDS011;1558;42.700;23.360;2022-09-25T01:55:43;15.77;;;14.07;;
3095;SDS011;1558;42.700;23.360;2022-09-25T01:58:15;16.27;;;14.57;;
3095;SDS011;1558;42.700;23.360;2022-09-25T02:00:52;15.73;;;13.20;;
3095;SDS011;1558;42.700;23.360;2022-09-25T02:03:26;14.27;;;12.87;;
3095;SDS011;1558;42.700;23.360;2022-09-25T02:05:58;15.33;;;13.80;;
3095;SDS011;1558;42.700;23.360;2022-09-25T02:08:29;16.30;;;14.40;;
3095;SDS011;1558;42.700;23.360;2022-09-25T02:11:02;15.50;;;13.63;;
3095;SDS011;1558;42.700;23.360;2022-09-25T02:13:34;15.37;;;13.77;;
3095;SDS011;1558;42.700;23.360;2022-09-25T02:16:08;17.33;;;15.30;;
3095;SDS011;1558;42.700;23.360;2022-09-25T02:18:39;14.47;;;13.07;;
3095;SDS011;1558;42.700;23.360;2022-09-25T02:21:26;16.47;;;14.00;;
3095;SDS011;1558;42.700;23.360;2022-09-25T02:24:01;14.23;;;12.90;;
3095;SDS011;1558;42.700;23.360;2022-09-25T02:26:35;14.70;;;13.10;;
3095;SDS011;1558;42.700;23.360;2022-09-25T02:29:04;15.77;;;13.60;;
3095;SDS011;1558;42.700;23.360;2022-09-25T02:31:35;16.87;;;15.17;;
3095;SDS011;1558;42.700;23.360;2022-09-25T02:34:06;16.50;;;14.80;;
3095;SDS011;1558;42.700;23.360;2022-09-25T02:36:40;16.37;;;14.30;;
3095;SDS011;1558;42.700;23.360;2022-09-25T02:39:10;17.27;;;15.17;;
3095;SDS011;1558;42.700;23.360;2022-09-25T02:41:48;17.43;;;14.83;;
3095;SDS011;1558;42.700;23.360;2022-09-25T02:44:31;16.77;;;15.17;;
3095;SDS011;1558;42.700;23.360;2022-09-25T02:47:12;16.13;;;14.50;;
3095;SDS011;1558;42.700;23.360;2022-09-25T02:49:50;16.07;;;14.53;;
3095;SDS011;1558;42.700;23.360;2022-09-25T02:52:26;15.77;;;14.30;;
3095;SDS011;1558;42.700;23.360;2022-09-25T02:55:02;17.30;;;14.33;;
3095;SDS011;1558;42.700;23.360;2022-09-25T02:57:38;17.23;;;15.07;;
3095;SDS011;1558;42.700;23.360;2022-09-25T03:00:12;15.47;;;13.90;;
3095;SDS011;1558;42.700;23.360;2022-09-25T03:02:42;15.13;;;13.53;;
3095;SDS011;1558;42.700;23.360;2022-09-25T03:05:17;15.60;;;13.67;;
3095;SDS011;1558;42.700;23.360;2022-09-25T03:07:46;15.70;;;13.87;;
3095;SDS011;1558;42.700;23.360;2022-09-25T03:10:32;15.17;;;13.60;;
3095;SDS011;1558;42.700;23.360;2022-09-25T03:13:16;17.20;;;14.67;;
3095;SDS011;1558;42.700;23.360;2022-09-25T03:15:45;15.30;;;13.80;;
3095;SDS011;1558;42.700;23.360;2022-09-25T03:18:19;18.03;;;14.23;;
3095;SDS011;1558;42.700;23.360;2022-09-25T03:20:47;15.57;;;13.97;;
3095;SDS011;1558;42.700;23.360;2022-09-25T03:23:15;14.97;;;13.33;;
3095;SDS011;1558;42.700;23.360;2022-09-25T03:25:42;16.67;;;14.30;;
3095;SDS011;1558;42.700;23.360;2022-09-25T03:28:15;15.67;;;14.00;;
3095;SDS011;1558;42.700;23.360;2022-09-25T03:30:43;15.90;;;14.07;;
3095;SDS011;1558;42.700;23.360;2022-09-25T03:33:22;16.10;;;14.40;;
3095;SDS011;1558;42.700;23.360;2022-09-25T03:35:58;16.00;;;14.40;;
3095;SDS011;1558;42.700;23.360;2022-09-25T03:38:27;17.87;;;13.60;;
3095;SDS011;1558;42.700;23.360;2022-09-25T03:40:55;15.10;;;13.40;;
3095;SDS011;1558;42.700;23.360;2022-09-25T03:43:23;14.97;;;13.47;;
3095;SDS011;1558;42.700;23.360;2022-09-25T03:45:50;15.53;;;12.83;;
3095;SDS011;1558;42.700;23.360;2022-09-25T03:48:18;14.57;;;13.07;;
3095;SDS011;1558;42.700;23.360;2022-09-25T03:50:48;13.87;;;12.47;;
3095;SDS011;1558;42.700;23.360;2022-09-25T03:53:16;14.70;;;12.87;;
3095;SDS011;1558;42.700;23.360;2022-09-25T03:55:44;12.97;;;11.53;;
3095;SDS011;1558;42.700;23.360;2022-09-25T03:58:14;13.40;;;11.83;;
3095;SDS011;1558;42.700;23.360;2022-09-25T04:00:43;12.33;;;11.13;;
3095;SDS011;1558;42.700;23.360;2022-09-25T04:03:12;13.70;;;12.20;;
3095;SDS011;1558;42.700;23.360;2022-09-25T04:05:40;12.07;;;10.87;;
3095;SDS011;1558;42.700;23.360;2022-09-25T04:08:09;13.47;;;10.97;;
3095;SDS011;1558;42.700;23.360;2022-09-25T04:10:37;11.23;;;10.13;;
3095;SDS011;1558;42.700;23.360;2022-09-25T04:13:05;14.10;;;11.07;;
3095;SDS011;1558;42.700;23.360;2022-09-25T04:15:34;12.30;;;11.03;;
3095;SDS011;1558;42.700;23.360;2022-09-25T04:18:02;13.33;;;10.13;;
3095;SDS011;1558;42.700;23.360;2022-09-25T04:20:31;12.90;;;11.20;;
3095;SDS011;1558;42.700;23.360;2022-09-25T04:22:59;12.37;;;11.07;;
3095;SDS011;1558;42.700;23.360;2022-09-25T04:25:28;12.60;;;10.47;;
3095;SDS011;1558;42.700;23.360;2022-09-25T04:27:56;13.83;;;11.10;;
3095;SDS011;1558;42.700;23.360;2022-09-25T04:30:25;10.77;;;9.77;;
3095;SDS011;1558;42.700;23.360;2022-09-25T04:32:54;10.97;;;9.87;;
3095;SDS011;1558;42.700;23.360;2022-09-25T04:35:40;12.33;;;10.80;;
3095;SDS011;1558;42.700;23.360;2022-09-25T04:38:08;10.77;;;9.77;;
3095;SDS011;1558;42.700;23.360;2022-09-25T04:40:37;10.60;;;9.50;;
3095;SDS011;1558;42.700;23.360;2022-09-25T04:43:05;11.60;;;9.70;;
3095;SDS011;1558;42.700;23.360;2022-09-25T04:45:34;11.00;;;9.57;;
3095;SDS011;1558;42.700;23.360;2022-09-25T04:48:03;10.87;;;9.77;;
3095;SDS011;1558;42.700;23.360;2022-09-25T04:50:31;10.13;;;9.13;;
3095;SDS011;1558;42.700;23.360;2022-09-25T04:53:00;10.70;;;9.50;;
3095;SDS011;1558;42.700;23.360;2022-09-25T04:55:28;11.00;;;9.90;;
3095;SDS011;1558;42.700;23.360;2022-09-25T04:57:57;10.87;;;9.77;;
3095;SDS011;1558;42.700;23.360;2022-09-25T05:00:27;10.87;;;9.87;;
3095;SDS011;1558;42.700;23.360;2022-09-25T05:02:57;10.83;;;9.83;;
3095;SDS011;1558;42.700;23.360;2022-09-25T05:05:25;13.03;;;11.00;;
3095;SDS011;1558;42.700;23.360;2022-09-25T05:07:57;17.70;;;11.83;;
3095;SDS011;1558;42.700;23.360;2022-09-25T05:10:27;12.23;;;10.80;;
3095;SDS011;1558;42.700;23.360;2022-09-25T05:12:58;10.60;;;9.50;;
3095;SDS011;1558;42.700;23.360;2022-09-25T05:15:28;10.83;;;9.77;;
3095;SDS011;1558;42.700;23.360;2022-09-25T05:18:00;11.30;;;10.20;;
3095;SDS011;1558;42.700;23.360;2022-09-25T05:20:28;12.17;;;10.90;;
3095;SDS011;1558;42.700;23.360;2022-09-25T05:22:56;13.00;;;10.73;;
3095;SDS011;1558;42.700;23.360;2022-09-25T05:25:25;12.23;;;10.83;;
3095;SDS011;1558;42.700;23.360;2022-09-25T05:27:53;16.67;;;14.07;;
3095;SDS011;1558;42.700;23.360;2022-09-25T05:30:25;18.43;;;15.13;;
3095;SDS011;1558;42.700;23.360;2022-09-25T05:32:54;16.97;;;15.13;;
3095;SDS011;1558;42.700;23.360;2022-09-25T05:35:24;16.60;;;14.33;;
3095;SDS011;1558;42.700;23.360;2022-09-25T05:37:53;14.60;;;12.67;;
3095;SDS011;1558;42.700;23.360;2022-09-25T05:40:21;12.30;;;11.00;;
3095;SDS011;1558;42.700;23.360;2022-09-25T05:42:50;11.87;;;10.67;;
3095;SDS011;1558;42.700;23.360;2022-09-25T05:45:19;10.33;;;9.33;;
3095;SDS011;1558;42.700;23.360;2022-09-25T05:47:55;10.93;;;9.67;;
3095;SDS011;1558;42.700;23.360;2022-09-25T05:50:26;11.13;;;10.13;;
3095;SDS011;1558;42.700;23.360;2022-09-25T05:52:55;11.97;;;10.23;;
3095;SDS011;1558;42.700;23.360;2022-09-25T05:55:23;11.37;;;10.27;;
3095;SDS011;1558;42.700;23.360;2022-09-25T05:57:51;10.33;;;9.00;;
3095;SDS011;1558;42.700;23.360;2022-09-25T06:00:19;11.30;;;10.13;;
3095;SDS011;1558;42.700;23.360;2022-09-25T06:02:51;10.10;;;9.10;;
3095;SDS011;1558;42.700;23.360;2022-09-25T06:05:19;11.20;;;10.17;;
3095;SDS011;1558;42.700;23.360;2022-09-25T06:07:50;11.07;;;10.07;;
3095;SDS011;1558;42.700;23.360;2022-09-25T06:10:19;11.03;;;9.93;;
3095;SDS011;1558;42.700;23.360;2022-09-25T06:12:47;11.17;;;10.07;;
3095;SDS011;1558;42.700;23.360;2022-09-25T06:15:15;10.87;;;9.77;;
3095;SDS011;1558;42.700;23.360;2022-09-25T06:17:43;10.98;;;9.95;;
3095;SDS011;1558;42.700;23.360;2022-09-25T06:20:12;10.18;;;9.25;;
3095;SDS011;1558;42.700;23.360;2022-09-25T06:22:41;9.80;;;8.80;;
3095;SDS011;1558;42.700;23.360;2022-09-25T06:25:10;10.02;;;9.13;;
3095;SDS011;1558;42.700;23.360;2022-09-25T06:27:40;13.27;;;12.10;;
3095;SDS011;1558;42.700;23.360;2022-09-25T06:30:08;10.95;;;9.82;;
3095;SDS011;1558;42.700;23.360;2022-09-25T06:32:37;10.30;;;9.43;;
3095;SDS011;1558;42.700;23.360;2022-09-25T06:35:05;10.75;;;9.73;;
3095;SDS011;1558;42.700;23.360;2022-09-25T06:37:34;11.05;;;10.02;;
3095;SDS011;1558;42.700;23.360;2022-09-25T06:40:02;10.88;;;9.82;;
3095;SDS011;1558;42.700;23.360;2022-09-25T06:42:30;10.43;;;9.52;;
3095;SDS011;1558;42.700;23.360;2022-09-25T06:45:00;10.88;;;9.77;;
3095;SDS011;1558;42.700;23.360;2022-09-25T06:47:28;11.07;;;10.18;;
3095;SDS011;1558;42.700;23.360;2022-09-25T06:49:56;11.30;;;10.27;;
3095;SDS011;1558;42.700;23.360;2022-09-25T06:52:25;11.13;;;10.13;;
3095;SDS011;1558;42.700;23.360;2022-09-25T06:54:54;10.73;;;9.82;;
3095;SDS011;1558;42.700;23.360;2022-09-25T06:57:22;12.57;;;11.38;;
3095;SDS011;1558;42.700;23.360;2022-09-25T06:59:50;11.77;;;10.68;;
3095;SDS011;1558;42.700;23.360;2022-09-25T07:02:18;10.65;;;9.75;;
3095;SDS011;1558;42.700;23.360;2022-09-25T07:05:15;12.95;;;11.43;;
3095;SDS011;1558;42.700;23.360;2022-09-25T07:07:44;12.55;;;11.50;;
3095;SDS011;1558;42.700;23.360;2022-09-25T07:10:14;12.80;;;11.60;;
3095;SDS011;1558;42.700;23.360;2022-09-25T07:12:42;12.00;;;10.80;;
3095;SDS011;1558;42.700;23.360;2022-09-25T07:15:10;11.68;;;10.68;;
3095;SDS011;1558;42.700;23.360;2022-09-25T07:17:40;12.38;;;11.38;;
3095;SDS011;1558;42.700;23.360;2022-09-25T07:20:08;11.63;;;10.63;;
3095;SDS011;1558;42.700;23.360;2022-09-25T07:22:37;11.82;;;10.82;;
3095;SDS011;1558;42.700;23.360;2022-09-25T07:25:06;10.95;;;10.10;;
3095;SDS011;1558;42.700;23.360;2022-09-25T07:27:37;11.35;;;10.30;;
3095;SDS011;1558;42.700;23.360;2022-09-25T07:30:07;11.10;;;10.10;;
3095;SDS011;1558;42.700;23.360;2022-09-25T07:32:35;12.25;;;11.35;;
3095;SDS011;1558;42.700;23.360;2022-09-25T07:35:03;11.80;;;10.02;;
3095;SDS011;1558;42.700;23.360;2022-09-25T07:37:32;9.77;;;9.00;;
3095;SDS011;1558;42.700;23.360;2022-09-25T07:39:59;10.57;;;9.57;;
3095;SDS011;1558;42.700;23.360;2022-09-25T07:42:28;10.70;;;9.60;;
3095;SDS011;1558;42.700;23.360;2022-09-25T07:44:58;10.00;;;9.10;;
3095;SDS011;1558;42.700;23.360;2022-09-25T07:47:26;9.32;;;8.48;;
3095;SDS011;1558;42.700;23.360;2022-09-25T07:49:53;9.43;;;8.30;;
3095;SDS011;1558;42.700;23.360;2022-09-25T07:52:21;9.30;;;8.45;;
3095;SDS011;1558;42.700;23.360;2022-09-25T07:54:49;9.43;;;8.43;;
3095;SDS011;1558;42.700;23.360;2022-09-25T07:57:17;10.23;;;9.32;;
3095;SDS011;1558;42.700;23.360;2022-09-25T07:59:45;9.77;;;8.95;;
3095;SDS011;1558;42.700;23.360;2022-09-25T08:02:15;10.00;;;9.18;;
3095;SDS011;1558;42.700;23.360;2022-09-25T08:04:43;11.05;;;10.05;;
3095;SDS011;1558;42.700;23.360;2022-09-25T08:07:11;8.98;;;8.27;;
3095;SDS011;1558;42.700;23.360;2022-09-25T08:09:38;10.50;;;9.32;;
3095;SDS011;1558;42.700;23.360;2022-09-25T08:12:09;10.05;;;9.07;;
3095;SDS011;1558;42.700;23.360;2022-09-25T08:14:38;10.35;;;9.27;;
3095;SDS011;1558;42.700;23.360;2022-09-25T08:17:07;9.75;;;8.95;;
3095;SDS011;1558;42.700;23.360;2022-09-25T08:19:36;11.32;;;10.43;;
3095;SDS011;1558;42.700;23.360;2022-09-25T08:22:04;9.25;;;8.27;;
3095;SDS011;1558;42.700;23.360;2022-09-25T08:24:31;9.07;;;8.27;;
3095;SDS011;1558;42.700;23.360;2022-09-25T08:26:59;8.27;;;7.57;;
3095;SDS011;1558;42.700;23.360;2022-09-25T08:29:27;8.50;;;7.85;;
3095;SDS011;1558;42.700;23.360;2022-09-25T08:31:56;8.05;;;7.35;;
3095;SDS011;1558;42.700;23.360;2022-09-25T08:34:24;7.60;;;6.90;;
3095;SDS011;1558;42.700;23.360;2022-09-25T08:37:09;7.80;;;7.20;;
3095;SDS011;1558;42.700;23.360;2022-09-25T08:39:37;9.65;;;8.68;;
3095;SDS011;1558;42.700;23.360;2022-09-25T08:42:05;7.90;;;7.22;;
3095;SDS011;1558;42.700;23.360;2022-09-25T08:44:37;8.10;;;7.38;;
3095;SDS011;1558;42.700;23.360;2022-09-25T08:47:27;8.48;;;7.80;;
3095;SDS011;1558;42.700;23.360;2022-09-25T08:50:14;8.57;;;7.60;;
3095;SDS011;1558;42.700;23.360;2022-09-25T08:52:47;8.57;;;7.78;;
3095;SDS011;1558;42.700;23.360;2022-09-25T08:55:21;7.28;;;6.68;;
3095;SDS011;1558;42.700;23.360;2022-09-25T08:58:12;7.13;;;6.43;;
3095;SDS011;1558;42.700;23.360;2022-09-25T09:00:47;7.35;;;6.65;;
3095;SDS011;1558;42.700;23.360;2022-09-25T09:03:15;6.47;;;5.55;;
3095;SDS011;1558;42.700;23.360;2022-09-25T09:05:44;6.35;;;5.78;;
3095;SDS011;1558;42.700;23.360;2022-09-25T09:08:19;5.78;;;5.38;;
3095;SDS011;1558;42.700;23.360;2022-09-25T09:10:52;5.93;;;5.53;;
3095;SDS011;1558;42.700;23.360;2022-09-25T09:13:24;6.05;;;5.57;;
3095;SDS011;1558;42.700;23.360;2022-09-25T09:15:56;6.13;;;5.53;;
3095;SDS011;1558;42.700;23.360;2022-09-25T09:18:29;6.60;;;6.05;;
3095;SDS011;1558;42.700;23.360;2022-09-25T09:21:00;7.50;;;5.65;;
3095;SDS011;1558;42.700;23.360;2022-09-25T09:23:39;5.97;;;5.47;;
3095;SDS011;1558;42.700;23.360;2022-09-25T09:26:18;6.57;;;5.93;;
3095;SDS011;1558;42.700;23.360;2022-09-25T09:28:58;6.40;;;5.28;;
3095;SDS011;1558;42.700;23.360;2022-09-25T09:31:48;9.45;;;5.30;;
3095;SDS011;1558;42.700;23.360;2022-09-25T09:34:30;6.85;;;4.85;;
3095;SDS011;1558;42.700;23.360;2022-09-25T09:37:29;5.50;;;4.60;;
3095;SDS011;1558;42.700;23.360;2022-09-25T09:43:20;4.68;;;4.20;;
3095;SDS011;1558;42.700;23.360;2022-09-25T09:45:57;5.28;;;4.72;;
3095;SDS011;1558;42.700;23.360;2022-09-25T09:48:32;5.10;;;4.70;;
3095;SDS011;1558;42.700;23.360;2022-09-25T09:51:07;6.00;;;5.50;;
3095;SDS011;1558;42.700;23.360;2022-09-25T09:53:40;6.05;;;4.93;;
3095;SDS011;1558;42.700;23.360;2022-09-25T09:56:15;5.00;;;4.60;;
3095;SDS011;1558;42.700;23.360;2022-09-25T09:58:47;5.25;;;4.75;;
3095;SDS011;1558;42.700;23.360;2022-09-25T10:01:20;5.13;;;4.72;;
3095;SDS011;1558;42.700;23.360;2022-09-25T10:04:08;5.88;;;5.38;;
3095;SDS011;1558;42.700;23.360;2022-09-25T10:06:38;5.20;;;4.78;;
3095;SDS011;1558;42.700;23.360;2022-09-25T10:09:10;4.93;;;4.60;;
3095;SDS011;1558;42.700;23.360;2022-09-25T10:11:43;7.07;;;6.47;;
3095;SDS011;1558;42.700;23.360;2022-09-25T10:14:14;6.45;;;4.82;;
3095;SDS011;1558;42.700;23.360;2022-09-25T10:16:46;10.07;;;8.35;;
3095;SDS011;1558;42.700;23.360;2022-09-25T10:19:17;7.85;;;7.25;;
3095;SDS011;1558;42.700;23.360;2022-09-25T10:21:49;6.35;;;5.68;;
3095;SDS011;1558;42.700;23.360;2022-09-25T10:27:28;5.28;;;4.88;;
3095;SDS011;1558;42.700;23.360;2022-09-25T10:30:14;9.48;;;4.60;;
3095;SDS011;1558;42.700;23.360;2022-09-25T10:32:49;4.50;;;4.20;;
3095;SDS011;1558;42.700;23.360;2022-09-25T10:35:24;4.80;;;4.40;;
3095;SDS011;1558;42.700;23.360;2022-09-25T10:37:55;4.60;;;4.20;;
3095;SDS011;1558;42.700;23.360;2022-09-25T10:40:25;4.88;;;4.40;;
3095;SDS011;1558;42.700;23.360;2022-09-25T10:43:07;5.20;;;4.78;;
3095;SDS011;1558;42.700;23.360;2022-09-25T10:45:42;5.75;;;4.90;;
3095;SDS011;1558;42.700;23.360;2022-09-25T10:48:22;5.13;;;4.60;;
3095;SDS011;1558;42.700;23.360;2022-09-25T10:51:11;4.68;;;4.30;;
3095;SDS011;1558;42.700;23.360;2022-09-25T10:53:43;5.50;;;4.20;;
3095;SDS011;1558;42.700;23.360;2022-09-25T10:56:13;4.85;;;4.38;;
3095;SDS011;1558;42.700;23.360;2022-09-25T10:58:45;5.22;;;4.72;;
3095;SDS011;1558;42.700;23.360;2022-09-25T11:01:17;5.90;;;5.40;;
3095;SDS011;1558;42.700;23.360;2022-09-25T11:03:47;5.30;;;4.43;;
3095;SDS011;1558;42.700;23.360;2022-09-25T11:06:20;10.27;;;6.05;;
3095;SDS011;1558;42.700;23.360;2022-09-25T11:08:58;6.63;;;5.47;;
3095;SDS011;1558;42.700;23.360;2022-09-25T11:11:30;6.20;;;4.65;;
3095;SDS011;1558;42.700;23.360;2022-09-25T11:14:01;5.07;;;4.50;;
3095;SDS011;1558;42.700;23.360;2022-09-25T11:16:40;5.00;;;4.70;;
3095;SDS011;1558;42.700;23.360;2022-09-25T11:19:14;4.78;;;4.47;;
3095;SDS011;1558;42.700;23.360;2022-09-25T11:21:48;4.80;;;4.50;;
3095;SDS011;1558;42.700;23.360;2022-09-25T11:24:27;4.88;;;4.40;;
3095;SDS011;1558;42.700;23.360;2022-09-25T11:27:04;4.45;;;4.15;;
3095;SDS011;1558;42.700;23.360;2022-09-25T11:29:41;4.22;;;3.97;;
3095;SDS011;1558;42.700;23.360;2022-09-25T11:32:17;4.47;;;4.07;;
3095;SDS011;1558;42.700;23.360;2022-09-25T11:34:56;4.72;;;4.22;;
3095;SDS011;1558;42.700;23.360;2022-09-25T11:37:42;4.70;;;4.15;;
3095;SDS011;1558;42.700;23.360;2022-09-25T11:40:23;6.13;;;5.53;;
3095;SDS011;1558;42.700;23.360;2022-09-25T11:43:19;6.18;;;5.57;;
3095;SDS011;1558;42.700;23.360;2022-09-25T11:45:58;4.57;;;4.25;;
3095;SDS011;1558;42.700;23.360;2022-09-25T11:48:36;4.30;;;3.95;;
3095;SDS011;1558;42.700;23.360;2022-09-25T11:51:10;6.97;;;6.38;;
3095;SDS011;1558;42.700;23.360;2022-09-25T11:53:51;4.60;;;4.20;;
3095;SDS011;1558;42.700;23.360;2022-09-25T11:56:48;5.10;;;4.60;;
3095;SDS011;1558;42.700;23.360;2022-09-25T11:59:26;4.28;;;3.90;;
3095;SDS011;1558;42.700;23.360;2022-09-25T12:02:11;4.80;;;4.40;;
3095;SDS011;1558;42.700;23.360;2022-09-25T12:05:01;4.15;;;3.85;;
3095;SDS011;1558;42.700;23.360;2022-09-25T12:07:45;4.68;;;4.22;;
3095;SDS011;1558;42.700;23.360;2022-09-25T12:10:28;5.00;;;4.55;;
3095;SDS011;1558;42.700;23.360;2022-09-25T12:13:10;4.35;;;4.05;;
3095;SDS011;1558;42.700;23.360;2022-09-25T12:15:48;4.68;;;4.28;;
3095;SDS011;1558;42.700;23.360;2022-09-25T12:18:31;4.88;;;4.13;;
3095;SDS011;1558;42.700;23.360;2022-09-25T12:21:19;4.00;;;3.70;;
3095;SDS011;1558;42.700;23.360;2022-09-25T12:24:00;4.00;;;3.60;;
3095;SDS011;1558;42.700;23.360;2022-09-25T12:26:39;3.80;;;3.33;;
3095;SDS011;1558;42.700;23.360;2022-09-25T12:29:21;5.03;;;4.07;;
3095;SDS011;1558;42.700;23.360;2022-09-25T12:32:00;4.15;;;3.75;;
3095;SDS011;1558;42.700;23.360;2022-09-25T12:34:39;3.78;;;3.47;;
3095;SDS011;1558;42.700;23.360;2022-09-25T12:37:23;4.13;;;3.72;;
3095;SDS011;1558;42.700;23.360;2022-09-25T12:40:09;4.28;;;3.88;;
3095;SDS011;1558;42.700;23.360;2022-09-25T12:42:42;4.80;;;4.40;;
3095;SDS011;1558;42.700;23.360;2022-09-25T12:45:15;4.20;;;3.90;;
3095;SDS011;1558;42.700;23.360;2022-09-25T12:47:50;5.57;;;3.85;;
3095;SDS011;1558;42.700;23.360;2022-09-25T12:50:29;4.13;;;3.80;;
3095;SDS011;1558;42.700;23.360;2022-09-25T12:53:04;3.88;;;3.53;;
3095;SDS011;1558;42.700;23.360;2022-09-25T12:55:46;4.20;;;3.80;;
3095;SDS011;1558;42.700;23.360;2022-09-25T12:58:20;3.72;;;3.42;;
3095;SDS011;1558;42.700;23.360;2022-09-25T13:00:54;3.58;;;3.28;;
3095;SDS011;1558;42.700;23.360;2022-09-25T13:03:31;3.53;;;3.22;;
3095;SDS011;1558;42.700;23.360;2022-09-25T13:06:08;3.55;;;3.25;;
3095;SDS011;1558;42.700;23.360;2022-09-25T13:08:42;3.63;;;3.33;;
3095;SDS011;1558;42.700;23.360;2022-09-25T13:11:18;3.80;;;3.42;;
3095;SDS011;1558;42.700;23.360;2022-09-25T13:14:04;3.38;;;3.17;;
3095;SDS011;1558;42.700;23.360;2022-09-25T13:16:38;5.15;;;3.40;;
3095;SDS011;1558;42.700;23.360;2022-09-25T13:19:10;3.88;;;3.55;;
3095;SDS011;1558;42.700;23.360;2022-09-25T13:21:50;3.92;;;3.53;;
3095;SDS011;1558;42.700;23.360;2022-09-25T13:24:25;6.10;;;3.45;;
3095;SDS011;1558;42.700;23.360;2022-09-25T13:26:53;3.33;;;3.03;;
3095;SDS011;1558;42.700;23.360;2022-09-25T13:29:32;3.80;;;3.50;;
3095;SDS011;1558;42.700;23.360;2022-09-25T13:32:05;3.45;;;3.20;;
3095;SDS011;1558;42.700;23.360;2022-09-25T13:34:39;3.53;;;3.30;;
3095;SDS011;1558;42.700;23.360;2022-09-25T13:37:10;4.15;;;3.70;;
3095;SDS011;1558;42.700;23.360;2022-09-25T13:39:39;7.85;;;4.10;;
3095;SDS011;1558;42.700;23.360;2022-09-25T13:42:29;3.33;;;3.05;;
3095;SDS011;1558;42.700;23.360;2022-09-25T13:45:04;3.50;;;3.17;;
3095;SDS011;1558;42.700;23.360;2022-09-25T13:48:00;3.67;;;3.38;;
3095;SDS011;1558;42.700;23.360;2022-09-25T13:50:40;4.05;;;3.13;;
3095;SDS011;1558;42.700;23.360;2022-09-25T13:53:20;3.58;;;3.28;;
3095;SDS011;1558;42.700;23.360;2022-09-25T13:56:13;4.00;;;3.60;;
3095;SDS011;1558;42.700;23.360;2022-09-25T13:59:02;4.18;;;3.30;;
3095;SDS011;1558;42.700;23.360;2022-09-25T14:01:58;4.93;;;3.10;;
3095;SDS011;1558;42.700;23.360;2022-09-25T14:05:03;3.35;;;3.08;;
3095;SDS011;1558;42.700;23.360;2022-09-25T14:07:32;4.03;;;3.20;;
3095;SDS011;1558;42.700;23.360;2022-09-25T14:10:02;5.85;;;3.10;;
3095;SDS011;1558;42.700;23.360;2022-09-25T14:12:37;4.30;;;3.10;;
3095;SDS011;1558;42.700;23.360;2022-09-25T14:15:15;4.50;;;3.20;;
3095;SDS011;1558;42.700;23.360;2022-09-25T14:17:48;3.40;;;3.10;;
3095;SDS011;1558;42.700;23.360;2022-09-25T14:20:25;3.42;;;3.13;;
3095;SDS011;1558;42.700;23.360;2022-09-25T14:22:57;4.78;;;3.55;;
3095;SDS011;1558;42.700;23.360;2022-09-25T14:25:30;3.60;;;3.30;;
3095;SDS011;1558;42.700;23.360;2022-09-25T14:28:00;3.97;;;3.50;;
3095;SDS011;1558;42.700;23.360;2022-09-25T14:30:29;2.97;;;2.78;;
3095;SDS011;1558;42.700;23.360;2022-09-25T14:33:02;6.05;;;3.50;;
3095;SDS011;1558;42.700;23.360;2022-09-25T14:35:44;3.95;;;3.65;;
3095;SDS011;1558;42.700;23.360;2022-09-25T14:38:36;5.38;;;3.50;;
3095;SDS011;1558;42.700;23.360;2022-09-25T14:41:24;3.53;;;3.20;;
3095;SDS011;1558;42.700;23.360;2022-09-25T14:44:14;5.32;;;3.35;;
3095;SDS011;1558;42.700;23.360;2022-09-25T14:46:56;5.60;;;3.45;;
3095;SDS011;1558;42.700;23.360;2022-09-25T14:49:25;4.38;;;3.28;;
3095;SDS011;1558;42.700;23.360;2022-09-25T14:51:57;6.10;;;3.42;;
3095;SDS011;1558;42.700;23.360;2022-09-25T14:54:29;3.75;;;3.08;;
3095;SDS011;1558;42.700;23.360;2022-09-25T14:57:04;4.15;;;3.50;;
3095;SDS011;1558;42.700;23.360;2022-09-25T14:59:36;3.58;;;3.15;;
3095;SDS011;1558;42.700;23.360;2022-09-25T15:02:10;3.60;;;3.28;;
3095;SDS011;1558;42.700;23.360;2022-09-25T15:04:45;4.35;;;3.85;;
3095;SDS011;1558;42.700;23.360;2022-09-25T15:07:13;4.22;;;2.97;;
3095;SDS011;1558;42.700;23.360;2022-09-25T15:09:43;4.30;;;3.20;;
3095;SDS011;1558;42.700;23.360;2022-09-25T15:12:16;3.33;;;2.55;;
3095;SDS011;1558;42.700;23.360;2022-09-25T15:14:56;3.80;;;3.15;;
3095;SDS011;1558;42.700;23.360;2022-09-25T15:17:24;3.55;;;2.65;;
3095;SDS011;1558;42.700;23.360;2022-09-25T15:19:53;3.05;;;2.67;;
3095;SDS011;1558;42.700;23.360;2022-09-25T15:22:26;3.15;;;2.80;;
3095;SDS011;1558;42.700;23.360;2022-09-25T15:24:58;4.78;;;3.13;;
3095;SDS011;1558;42.700;23.360;2022-09-25T15:27:30;7.38;;;3.10;;
3095;SDS011;1558;42.700;23.360;2022-09-25T15:29:58;3.67;;;2.95;;
3095;SDS011;1558;42.700;23.360;2022-09-25T15:32:31;2.55;;;2.35;;